Terminal Aerodrome Forecast
Issued by NWS

Home | Current Version | Previous Version | Text Only | Print | Product List | Glossary On
Versions: 1 2 3 4 5 6 7 8 9 10 11 12 13 14 15 16
000
FTUS42 KTBW 291700
TAFPIE
TAF
KPIE 291740Z 2918/3018 23008KT P6SM VCTS SCT030CB SCT100
     FM292100 25008KT P6SM VCTS SCT030CB BKN100
     FM300100 VRB03KT P6SM SCT040 SCT130 BKN250
     FM300600 12004KT P6SM SCT250
     FM301400 15006KT P6SM SCT025 SCT250
     FM301700 21007KT P6SM VCTS SCT035CB SCT100=

USA.gov is the U.S. government's official web portal to all federal, state and local government web resources and services.